sensor_id;sensor_type;location;lat;lon;timestamp;P1;durP1;ratioP1;P2;durP2;ratioP2
41923;SDS011;27613;48.116;11.656;2022-12-24T00:01:08;2.92;;;1.65;;
41923;SDS011;27613;48.116;11.656;2022-12-24T00:03:35;1.77;;;1.10;;
41923;SDS011;27613;48.116;11.656;2022-12-24T00:06:05;2.08;;;1.30;;
41923;SDS011;27613;48.116;11.656;2022-12-24T00:08:37;2.58;;;1.23;;
41923;SDS011;27613;48.116;11.656;2022-12-24T00:11:02;1.80;;;1.25;;
41923;SDS011;27613;48.116;11.656;2022-12-24T00:13:28;2.17;;;1.35;;
41923;SDS011;27613;48.116;11.656;2022-12-24T00:15:54;2.85;;;1.60;;
41923;SDS011;27613;48.116;11.656;2022-12-24T00:18:19;2.35;;;1.20;;
41923;SDS011;27613;48.116;11.656;2022-12-24T00:20:48;2.67;;;1.20;;
41923;SDS011;27613;48.116;11.656;2022-12-24T00:23:14;5.55;;;1.00;;
41923;SDS011;27613;48.116;11.656;2022-12-24T00:25:41;1.40;;;1.02;;
41923;SDS011;27613;48.116;11.656;2022-12-24T00:28:06;2.40;;;1.30;;
41923;SDS011;27613;48.116;11.656;2022-12-24T00:30:32;1.90;;;0.90;;
41923;SDS011;27613;48.116;11.656;2022-12-24T00:33:01;5.97;;;1.13;;
41923;SDS011;27613;48.116;11.656;2022-12-24T00:35:26;1.20;;;0.90;;
41923;SDS011;27613;48.116;11.656;2022-12-24T00:37:52;1.98;;;1.05;;
41923;SDS011;27613;48.116;11.656;2022-12-24T00:40:18;1.08;;;0.98;;
41923;SDS011;27613;48.116;11.656;2022-12-24T00:42:43;1.30;;;0.93;;
41923;SDS011;27613;48.116;11.656;2022-12-24T00:45:12;2.63;;;1.20;;
41923;SDS011;27613;48.116;11.656;2022-12-24T00:47:37;1.88;;;0.90;;
41923;SDS011;27613;48.116;11.656;2022-12-24T00:50:03;2.30;;;1.10;;
41923;SDS011;27613;48.116;11.656;2022-12-24T00:52:29;1.38;;;0.90;;
41923;SDS011;27613;48.116;11.656;2022-12-24T00:54:55;1.95;;;1.13;;
41923;SDS011;27613;48.116;11.656;2022-12-24T00:57:21;2.20;;;1.10;;
41923;SDS011;27613;48.116;11.656;2022-12-24T00:59:46;1.92;;;1.10;;
41923;SDS011;27613;48.116;11.656;2022-12-24T01:02:12;1.58;;;1.10;;
41923;SDS011;27613;48.116;11.656;2022-12-24T01:04:37;1.70;;;0.90;;
41923;SDS011;27613;48.116;11.656;2022-12-24T01:07:21;2.03;;;0.90;;
41923;SDS011;27613;48.116;11.656;2022-12-24T01:09:47;1.90;;;1.30;;
41923;SDS011;27613;48.116;11.656;2022-12-24T01:12:15;1.55;;;1.00;;
41923;SDS011;27613;48.116;11.656;2022-12-24T01:14:41;1.23;;;0.77;;
41923;SDS011;27613;48.116;11.656;2022-12-24T01:17:06;1.55;;;0.90;;
41923;SDS011;27613;48.116;11.656;2022-12-24T01:19:32;1.50;;;0.98;;
41923;SDS011;27613;48.116;11.656;2022-12-24T01:21:58;2.10;;;0.93;;
41923;SDS011;27613;48.116;11.656;2022-12-24T01:24:24;1.25;;;1.00;;
41923;SDS011;27613;48.116;11.656;2022-12-24T01:26:49;1.52;;;1.10;;
41923;SDS011;27613;48.116;11.656;2022-12-24T01:29:15;0.93;;;0.82;;
41923;SDS011;27613;48.116;11.656;2022-12-24T01:31:44;1.63;;;0.90;;
41923;SDS011;27613;48.116;11.656;2022-12-24T01:34:09;2.53;;;0.93;;
41923;SDS011;27613;48.116;11.656;2022-12-24T01:36:35;1.88;;;1.10;;
41923;SDS011;27613;48.116;11.656;2022-12-24T01:39:01;0.93;;;0.70;;
41923;SDS011;27613;48.116;11.656;2022-12-24T01:41:28;2.80;;;1.05;;
41923;SDS011;27613;48.116;11.656;2022-12-24T01:46:51;1.73;;;0.90;;
41923;SDS011;27613;48.116;11.656;2022-12-24T01:49:20;1.83;;;1.00;;
41923;SDS011;27613;48.116;11.656;2022-12-24T01:51:47;1.67;;;1.00;;
41923;SDS011;27613;48.116;11.656;2022-12-24T01:54:17;1.95;;;1.02;;
41923;SDS011;27613;48.116;11.656;2022-12-24T01:56:45;1.95;;;0.95;;
41923;SDS011;27613;48.116;11.656;2022-12-24T01:59:15;1.30;;;1.00;;
41923;SDS011;27613;48.116;11.656;2022-12-24T02:01:45;1.73;;;1.10;;
41923;SDS011;27613;48.116;11.656;2022-12-24T02:04:31;1.30;;;1.00;;
41923;SDS011;27613;48.116;11.656;2022-12-24T02:07:01;1.00;;;0.80;;
41923;SDS011;27613;48.116;11.656;2022-12-24T02:09:28;3.05;;;1.20;;
41923;SDS011;27613;48.116;11.656;2022-12-24T02:11:54;2.90;;;1.25;;
41923;SDS011;27613;48.116;11.656;2022-12-24T02:14:20;1.45;;;0.82;;
41923;SDS011;27613;48.116;11.656;2022-12-24T02:16:53;1.00;;;0.90;;
41923;SDS011;27613;48.116;11.656;2022-12-24T02:32:45;3.15;;;1.33;;
41923;SDS011;27613;48.116;11.656;2022-12-24T02:35:34;4.07;;;1.30;;
41923;SDS011;27613;48.116;11.656;2022-12-24T02:40:53;1.92;;;0.93;;
41923;SDS011;27613;48.116;11.656;2022-12-24T02:43:33;1.13;;;0.82;;
41923;SDS011;27613;48.116;11.656;2022-12-24T02:46:09;1.98;;;1.02;;
41923;SDS011;27613;48.116;11.656;2022-12-24T02:48:38;1.15;;;0.88;;
41923;SDS011;27613;48.116;11.656;2022-12-24T02:51:08;1.73;;;1.13;;
41923;SDS011;27613;48.116;11.656;2022-12-24T02:53:35;1.60;;;0.90;;
41923;SDS011;27613;48.116;11.656;2022-12-24T03:02:28;2.03;;;1.00;;
41923;SDS011;27613;48.116;11.656;2022-12-24T03:05:04;2.47;;;1.08;;
41923;SDS011;27613;48.116;11.656;2022-12-24T03:07:43;4.63;;;1.33;;
41923;SDS011;27613;48.116;11.656;2022-12-24T03:10:26;3.88;;;1.02;;
41923;SDS011;27613;48.116;11.656;2022-12-24T03:13:12;2.75;;;1.02;;
41923;SDS011;27613;48.116;11.656;2022-12-24T03:15:43;2.60;;;1.13;;
41923;SDS011;27613;48.116;11.656;2022-12-24T03:18:11;2.00;;;1.08;;
41923;SDS011;27613;48.116;11.656;2022-12-24T03:20:42;2.92;;;1.02;;
41923;SDS011;27613;48.116;11.656;2022-12-24T03:23:12;2.03;;;0.98;;
41923;SDS011;27613;48.116;11.656;2022-12-24T03:25:39;2.17;;;1.00;;
41923;SDS011;27613;48.116;11.656;2022-12-24T03:28:07;3.45;;;1.30;;
41923;SDS011;27613;48.116;11.656;2022-12-24T03:30:38;2.33;;;1.30;;
41923;SDS011;27613;48.116;11.656;2022-12-24T03:33:05;2.97;;;1.20;;
41923;SDS011;27613;48.116;11.656;2022-12-24T03:35:30;1.45;;;0.80;;
41923;SDS011;27613;48.116;11.656;2022-12-24T03:37:56;2.80;;;1.23;;
41923;SDS011;27613;48.116;11.656;2022-12-24T03:40:21;2.10;;;1.00;;
41923;SDS011;27613;48.116;11.656;2022-12-24T03:42:47;1.30;;;0.80;;
41923;SDS011;27613;48.116;11.656;2022-12-24T03:45:13;2.22;;;1.23;;
41923;SDS011;27613;48.116;11.656;2022-12-24T03:47:38;1.92;;;1.15;;
41923;SDS011;27613;48.116;11.656;2022-12-24T03:50:05;2.40;;;1.20;;
41923;SDS011;27613;48.116;11.656;2022-12-24T03:52:31;1.55;;;0.93;;
41923;SDS011;27613;48.116;11.656;2022-12-24T03:54:56;1.77;;;0.98;;
41923;SDS011;27613;48.116;11.656;2022-12-24T03:57:22;2.67;;;0.98;;
41923;SDS011;27613;48.116;11.656;2022-12-24T03:59:47;1.83;;;0.90;;
41923;SDS011;27613;48.116;11.656;2022-12-24T04:02:13;2.53;;;1.23;;
41923;SDS011;27613;48.116;11.656;2022-12-24T04:04:38;2.97;;;1.15;;
41923;SDS011;27613;48.116;11.656;2022-12-24T04:07:04;2.45;;;0.90;;
41923;SDS011;27613;48.116;11.656;2022-12-24T04:09:30;1.30;;;0.98;;
41923;SDS011;27613;48.116;11.656;2022-12-24T04:11:56;4.00;;;1.17;;
41923;SDS011;27613;48.116;11.656;2022-12-24T04:14:21;1.83;;;0.90;;
41923;SDS011;27613;48.116;11.656;2022-12-24T04:16:47;2.80;;;1.30;;
41923;SDS011;27613;48.116;11.656;2022-12-24T04:19:13;1.55;;;0.80;;
41923;SDS011;27613;48.116;11.656;2022-12-24T04:21:38;1.98;;;0.90;;
41923;SDS011;27613;48.116;11.656;2022-12-24T04:24:04;2.65;;;1.17;;
41923;SDS011;27613;48.116;11.656;2022-12-24T04:26:30;1.83;;;1.00;;
41923;SDS011;27613;48.116;11.656;2022-12-24T04:28:55;1.58;;;0.85;;
41923;SDS011;27613;48.116;11.656;2022-12-24T04:31:21;1.85;;;0.82;;
41923;SDS011;27613;48.116;11.656;2022-12-24T04:33:47;3.80;;;0.98;;
41923;SDS011;27613;48.116;11.656;2022-12-24T04:36:15;1.95;;;0.90;;
41923;SDS011;27613;48.116;11.656;2022-12-24T04:38:41;2.95;;;1.08;;
41923;SDS011;27613;48.116;11.656;2022-12-24T04:41:12;1.48;;;0.90;;
41923;SDS011;27613;48.116;11.656;2022-12-24T04:43:40;1.83;;;0.90;;
41923;SDS011;27613;48.116;11.656;2022-12-24T04:46:06;1.63;;;0.90;;
41923;SDS011;27613;48.116;11.656;2022-12-24T04:48:34;1.45;;;0.88;;
41923;SDS011;27613;48.116;11.656;2022-12-24T04:51:03;3.47;;;1.10;;
41923;SDS011;27613;48.116;11.656;2022-12-24T04:53:30;2.95;;;0.88;;
41923;SDS011;27613;48.116;11.656;2022-12-24T04:55:56;1.40;;;0.88;;
41923;SDS011;27613;48.116;11.656;2022-12-24T04:58:22;3.10;;;1.27;;
41923;SDS011;27613;48.116;11.656;2022-12-24T05:00:47;4.72;;;1.00;;
41923;SDS011;27613;48.116;11.656;2022-12-24T05:03:13;1.08;;;0.80;;
41923;SDS011;27613;48.116;11.656;2022-12-24T05:05:39;2.85;;;1.10;;
41923;SDS011;27613;48.116;11.656;2022-12-24T05:08:04;3.05;;;1.10;;
41923;SDS011;27613;48.116;11.656;2022-12-24T05:10:30;1.38;;;0.77;;
41923;SDS011;27613;48.116;11.656;2022-12-24T05:12:55;1.65;;;0.80;;
41923;SDS011;27613;48.116;11.656;2022-12-24T05:15:21;1.13;;;0.70;;
41923;SDS011;27613;48.116;11.656;2022-12-24T05:17:47;3.22;;;0.98;;
41923;SDS011;27613;48.116;11.656;2022-12-24T05:20:12;1.30;;;0.77;;
41923;SDS011;27613;48.116;11.656;2022-12-24T05:22:38;1.42;;;0.95;;
41923;SDS011;27613;48.116;11.656;2022-12-24T05:25:22;5.88;;;1.30;;
41923;SDS011;27613;48.116;11.656;2022-12-24T05:28:07;2.42;;;0.90;;
41923;SDS011;27613;48.116;11.656;2022-12-24T05:30:33;1.92;;;0.93;;
41923;SDS011;27613;48.116;11.656;2022-12-24T05:32:58;5.18;;;1.08;;
41923;SDS011;27613;48.116;11.656;2022-12-24T05:35:24;2.05;;;1.10;;
41923;SDS011;27613;48.116;11.656;2022-12-24T05:37:49;5.60;;;1.45;;
41923;SDS011;27613;48.116;11.656;2022-12-24T05:40:15;2.30;;;0.93;;
41923;SDS011;27613;48.116;11.656;2022-12-24T05:42:40;4.72;;;1.00;;
41923;SDS011;27613;48.116;11.656;2022-12-24T05:45:06;1.83;;;0.90;;
41923;SDS011;27613;48.116;11.656;2022-12-24T05:47:32;2.90;;;1.05;;
41923;SDS011;27613;48.116;11.656;2022-12-24T05:49:58;1.65;;;1.00;;
41923;SDS011;27613;48.116;11.656;2022-12-24T05:52:24;2.15;;;0.95;;
41923;SDS011;27613;48.116;11.656;2022-12-24T05:54:49;10.52;;;1.63;;
41923;SDS011;27613;48.116;11.656;2022-12-24T05:57:15;3.03;;;1.20;;
41923;SDS011;27613;48.116;11.656;2022-12-24T05:59:41;2.50;;;1.10;;
41923;SDS011;27613;48.116;11.656;2022-12-24T06:02:06;3.60;;;1.30;;
41923;SDS011;27613;48.116;11.656;2022-12-24T06:04:32;3.88;;;1.73;;
41923;SDS011;27613;48.116;11.656;2022-12-24T06:06:57;4.15;;;1.45;;
41923;SDS011;27613;48.116;11.656;2022-12-24T06:09:23;4.13;;;1.58;;
41923;SDS011;27613;48.116;11.656;2022-12-24T06:11:48;4.15;;;1.38;;
41923;SDS011;27613;48.116;11.656;2022-12-24T06:14:14;4.20;;;1.50;;
41923;SDS011;27613;48.116;11.656;2022-12-24T06:16:39;1.88;;;1.15;;
41923;SDS011;27613;48.116;11.656;2022-12-24T06:19:05;3.53;;;1.20;;
41923;SDS011;27613;48.116;11.656;2022-12-24T06:21:30;2.17;;;0.90;;
41923;SDS011;27613;48.116;11.656;2022-12-24T06:23:56;2.03;;;1.05;;
41923;SDS011;27613;48.116;11.656;2022-12-24T06:26:22;2.55;;;0.95;;
41923;SDS011;27613;48.116;11.656;2022-12-24T06:28:48;2.05;;;1.33;;
41923;SDS011;27613;48.116;11.656;2022-12-24T06:31:15;5.68;;;1.23;;
41923;SDS011;27613;48.116;11.656;2022-12-24T06:33:43;2.30;;;1.23;;
41923;SDS011;27613;48.116;11.656;2022-12-24T06:36:10;2.00;;;1.00;;
41923;SDS011;27613;48.116;11.656;2022-12-24T06:38:39;0.90;;;0.75;;
41923;SDS011;27613;48.116;11.656;2022-12-24T06:41:05;1.38;;;0.82;;
41923;SDS011;27613;48.116;11.656;2022-12-24T06:43:31;1.65;;;0.80;;
41923;SDS011;27613;48.116;11.656;2022-12-24T06:45:59;1.15;;;0.75;;
41923;SDS011;27613;48.116;11.656;2022-12-24T06:48:25;1.27;;;0.80;;
41923;SDS011;27613;48.116;11.656;2022-12-24T06:50:51;1.30;;;0.80;;
41923;SDS011;27613;48.116;11.656;2022-12-24T06:53:17;1.67;;;0.93;;
41923;SDS011;27613;48.116;11.656;2022-12-24T06:55:42;1.05;;;0.75;;
41923;SDS011;27613;48.116;11.656;2022-12-24T06:58:08;2.28;;;0.80;;
41923;SDS011;27613;48.116;11.656;2022-12-24T07:00:34;0.88;;;0.70;;
41923;SDS011;27613;48.116;11.656;2022-12-24T07:02:59;4.45;;;2.47;;
41923;SDS011;27613;48.116;11.656;2022-12-24T07:05:25;1.80;;;1.10;;
41923;SDS011;27613;48.116;11.656;2022-12-24T07:07:51;3.05;;;1.58;;
41923;SDS011;27613;48.116;11.656;2022-12-24T07:10:17;5.60;;;2.78;;
41923;SDS011;27613;48.116;11.656;2022-12-24T07:12:44;2.03;;;1.35;;
41923;SDS011;27613;48.116;11.656;2022-12-24T07:15:10;4.05;;;1.95;;
41923;SDS011;27613;48.116;11.656;2022-12-24T07:17:37;3.17;;;1.65;;
41923;SDS011;27613;48.116;11.656;2022-12-24T07:20:03;2.78;;;1.60;;
41923;SDS011;27613;48.116;11.656;2022-12-24T07:22:30;2.50;;;1.70;;
41923;SDS011;27613;48.116;11.656;2022-12-24T07:24:55;2.08;;;1.20;;
41923;SDS011;27613;48.116;11.656;2022-12-24T07:27:21;3.22;;;1.60;;
41923;SDS011;27613;48.116;11.656;2022-12-24T07:29:46;5.80;;;2.28;;
41923;SDS011;27613;48.116;11.656;2022-12-24T07:32:12;1.23;;;0.77;;
41923;SDS011;27613;48.116;11.656;2022-12-24T07:34:38;1.05;;;0.82;;
41923;SDS011;27613;48.116;11.656;2022-12-24T07:37:03;1.27;;;0.77;;
41923;SDS011;27613;48.116;11.656;2022-12-24T07:39:30;1.48;;;1.00;;
41923;SDS011;27613;48.116;11.656;2022-12-24T07:41:55;2.28;;;1.02;;
41923;SDS011;27613;48.116;11.656;2022-12-24T07:44:21;1.48;;;0.90;;
41923;SDS011;27613;48.116;11.656;2022-12-24T07:46:46;1.92;;;1.13;;
41923;SDS011;27613;48.116;11.656;2022-12-24T07:49:12;5.57;;;1.25;;
41923;SDS011;27613;48.116;11.656;2022-12-24T07:51:38;2.42;;;1.10;;
41923;SDS011;27613;48.116;11.656;2022-12-24T07:54:03;2.33;;;1.08;;
41923;SDS011;27613;48.116;11.656;2022-12-24T07:56:32;1.23;;;0.90;;
41923;SDS011;27613;48.116;11.656;2022-12-24T07:58:58;1.88;;;0.95;;
41923;SDS011;27613;48.116;11.656;2022-12-24T08:01:24;1.65;;;0.95;;
41923;SDS011;27613;48.116;11.656;2022-12-24T08:03:49;1.23;;;0.80;;
41923;SDS011;27613;48.116;11.656;2022-12-24T08:06:19;3.58;;;2.47;;
41923;SDS011;27613;48.116;11.656;2022-12-24T08:08:45;1.02;;;0.82;;
41923;SDS011;27613;48.116;11.656;2022-12-24T08:11:10;1.45;;;0.73;;
41923;SDS011;27613;48.116;11.656;2022-12-24T08:13:37;1.75;;;0.80;;
41923;SDS011;27613;48.116;11.656;2022-12-24T08:16:03;0.95;;;0.70;;
41923;SDS011;27613;48.116;11.656;2022-12-24T08:18:29;1.45;;;0.90;;
41923;SDS011;27613;48.116;11.656;2022-12-24T08:20:54;1.40;;;0.77;;
41923;SDS011;27613;48.116;11.656;2022-12-24T08:23:21;0.80;;;0.70;;
41923;SDS011;27613;48.116;11.656;2022-12-24T08:25:47;1.10;;;0.63;;
41923;SDS011;27613;48.116;11.656;2022-12-24T08:28:14;0.70;;;0.70;;
41923;SDS011;27613;48.116;11.656;2022-12-24T08:30:41;0.68;;;0.68;;
41923;SDS011;27613;48.116;11.656;2022-12-24T08:33:09;2.88;;;1.08;;
41923;SDS011;27613;48.116;11.656;2022-12-24T08:35:35;1.15;;;0.70;;
41923;SDS011;27613;48.116;11.656;2022-12-24T08:38:00;1.42;;;0.80;;
41923;SDS011;27613;48.116;11.656;2022-12-24T08:40:26;1.38;;;0.77;;
41923;SDS011;27613;48.116;11.656;2022-12-24T08:42:52;2.58;;;0.85;;
41923;SDS011;27613;48.116;11.656;2022-12-24T08:45:17;1.15;;;0.90;;
41923;SDS011;27613;48.116;11.656;2022-12-24T08:47:43;2.40;;;1.00;;
41923;SDS011;27613;48.116;11.656;2022-12-24T08:50:09;2.20;;;0.65;;
41923;SDS011;27613;48.116;11.656;2022-12-24T08:52:35;1.27;;;0.70;;
41923;SDS011;27613;48.116;11.656;2022-12-24T08:55:01;1.17;;;1.00;;
41923;SDS011;27613;48.116;11.656;2022-12-24T08:57:27;1.45;;;0.70;;
41923;SDS011;27613;48.116;11.656;2022-12-24T08:59:53;1.63;;;0.98;;
41923;SDS011;27613;48.116;11.656;2022-12-24T09:02:19;1.95;;;0.85;;
41923;SDS011;27613;48.116;11.656;2022-12-24T09:04:45;0.60;;;0.50;;
41923;SDS011;27613;48.116;11.656;2022-12-24T09:07:10;2.38;;;1.08;;
41923;SDS011;27613;48.116;11.656;2022-12-24T09:09:36;2.38;;;1.05;;
41923;SDS011;27613;48.116;11.656;2022-12-24T09:12:05;1.17;;;0.70;;
41923;SDS011;27613;48.116;11.656;2022-12-24T09:14:31;1.27;;;0.73;;
41923;SDS011;27613;48.116;11.656;2022-12-24T09:19:28;2.63;;;1.15;;
41923;SDS011;27613;48.116;11.656;2022-12-24T09:21:53;0.70;;;0.70;;
41923;SDS011;27613;48.116;11.656;2022-12-24T09:24:19;1.65;;;0.90;;
41923;SDS011;27613;48.116;11.656;2022-12-24T09:26:44;3.05;;;0.90;;
41923;SDS011;27613;48.116;11.656;2022-12-24T09:29:13;1.60;;;0.85;;
41923;SDS011;27613;48.116;11.656;2022-12-24T09:31:39;1.95;;;1.15;;
41923;SDS011;27613;48.116;11.656;2022-12-24T09:34:04;2.65;;;1.10;;
41923;SDS011;27613;48.116;11.656;2022-12-24T09:36:30;2.33;;;1.20;;
41923;SDS011;27613;48.116;11.656;2022-12-24T09:38:56;2.05;;;1.10;;
41923;SDS011;27613;48.116;11.656;2022-12-24T09:44:41;1.73;;;0.95;;
41923;SDS011;27613;48.116;11.656;2022-12-24T09:47:20;1.73;;;0.75;;
41923;SDS011;27613;48.116;11.656;2022-12-24T09:50:04;4.35;;;1.48;;
41923;SDS011;27613;48.116;11.656;2022-12-24T09:52:52;1.85;;;0.98;;
41923;SDS011;27613;48.116;11.656;2022-12-24T09:55:24;3.25;;;1.00;;
41923;SDS011;27613;48.116;11.656;2022-12-24T09:57:54;3.20;;;0.98;;
41923;SDS011;27613;48.116;11.656;2022-12-24T10:00:26;4.07;;;1.23;;
41923;SDS011;27613;48.116;11.656;2022-12-24T10:02:54;3.33;;;0.98;;
41923;SDS011;27613;48.116;11.656;2022-12-24T10:05:25;1.83;;;0.88;;
41923;SDS011;27613;48.116;11.656;2022-12-24T10:08:44;4.53;;;1.27;;
41923;SDS011;27613;48.116;11.656;2022-12-24T10:10:52;2.38;;;1.10;;
41923;SDS011;27613;48.116;11.656;2022-12-24T10:13:32;2.40;;;1.02;;
41923;SDS011;27613;48.116;11.656;2022-12-24T10:16:12;1.70;;;0.77;;
41923;SDS011;27613;48.116;11.656;2022-12-24T10:19:04;1.73;;;0.82;;
41923;SDS011;27613;48.116;11.656;2022-12-24T10:24:34;3.30;;;1.00;;
41923;SDS011;27613;48.116;11.656;2022-12-24T10:27:11;2.67;;;0.90;;
41923;SDS011;27613;48.116;11.656;2022-12-24T10:29:48;1.95;;;1.05;;
41923;SDS011;27613;48.116;11.656;2022-12-24T10:32:21;1.48;;;0.75;;
41923;SDS011;27613;48.116;11.656;2022-12-24T10:37:28;1.67;;;0.85;;
41923;SDS011;27613;48.116;11.656;2022-12-24T10:39:55;1.85;;;1.10;;
41923;SDS011;27613;48.116;11.656;2022-12-24T10:42:22;3.30;;;0.98;;
41923;SDS011;27613;48.116;11.656;2022-12-24T10:45:02;8.20;;;1.15;;
41923;SDS011;27613;48.116;11.656;2022-12-24T10:47:30;1.17;;;0.70;;
41923;SDS011;27613;48.116;11.656;2022-12-24T10:50:03;3.10;;;1.00;;
41923;SDS011;27613;48.116;11.656;2022-12-24T10:52:51;5.10;;;1.52;;
41923;SDS011;27613;48.116;11.656;2022-12-24T10:55:23;2.30;;;1.00;;
41923;SDS011;27613;48.116;11.656;2022-12-24T10:58:03;1.65;;;0.90;;
41923;SDS011;27613;48.116;11.656;2022-12-24T11:00:30;1.23;;;0.70;;
41923;SDS011;27613;48.116;11.656;2022-12-24T11:05:44;2.10;;;1.02;;
41923;SDS011;27613;48.116;11.656;2022-12-24T11:08:17;3.60;;;1.30;;
41923;SDS011;27613;48.116;11.656;2022-12-24T11:10:53;3.55;;;1.17;;
41923;SDS011;27613;48.116;11.656;2022-12-24T11:18:32;3.63;;;1.20;;
41923;SDS011;27613;48.116;11.656;2022-12-24T11:21:00;3.75;;;1.10;;
41923;SDS011;27613;48.116;11.656;2022-12-24T11:23:27;2.03;;;0.98;;
41923;SDS011;27613;48.116;11.656;2022-12-24T11:25:53;3.53;;;1.20;;
41923;SDS011;27613;48.116;11.656;2022-12-24T11:28:28;2.28;;;1.05;;
41923;SDS011;27613;48.116;11.656;2022-12-24T11:33:23;2.80;;;1.02;;
41923;SDS011;27613;48.116;11.656;2022-12-24T11:35:50;1.92;;;0.80;;
41923;SDS011;27613;48.116;11.656;2022-12-24T11:38:20;3.10;;;0.80;;
41923;SDS011;27613;48.116;11.656;2022-12-24T11:40:48;1.45;;;0.82;;
41923;SDS011;27613;48.116;11.656;2022-12-24T11:43:22;1.25;;;0.80;;
41923;SDS011;27613;48.116;11.656;2022-12-24T11:45:49;2.00;;;0.93;;
41923;SDS011;27613;48.116;11.656;2022-12-24T11:48:32;2.03;;;1.00;;
41923;SDS011;27613;48.116;11.656;2022-12-24T11:50:59;2.20;;;0.82;;
41923;SDS011;27613;48.116;11.656;2022-12-24T11:56:14;5.30;;;1.00;;
41923;SDS011;27613;48.116;11.656;2022-12-24T11:59:25;3.00;;;1.00;;
41923;SDS011;27613;48.116;11.656;2022-12-24T12:01:59;1.67;;;0.95;;
41923;SDS011;27613;48.116;11.656;2022-12-24T12:04:42;1.77;;;0.90;;
41923;SDS011;27613;48.116;11.656;2022-12-24T12:07:53;2.25;;;1.00;;
41923;SDS011;27613;48.116;11.656;2022-12-24T12:10:20;6.05;;;1.55;;
41923;SDS011;27613;48.116;11.656;2022-12-24T12:15:21;0.85;;;0.75;;
41923;SDS011;27613;48.116;11.656;2022-12-24T12:20:53;3.17;;;1.20;;
41923;SDS011;27613;48.116;11.656;2022-12-24T12:26:06;3.00;;;1.30;;
41923;SDS011;27613;48.116;11.656;2022-12-24T12:28:55;2.60;;;1.10;;
41923;SDS011;27613;48.116;11.656;2022-12-24T12:31:33;6.97;;;1.50;;
41923;SDS011;27613;48.116;11.656;2022-12-24T12:34:19;2.35;;;1.15;;
41923;SDS011;27613;48.116;11.656;2022-12-24T12:37:53;3.90;;;0.93;;
41923;SDS011;27613;48.116;11.656;2022-12-24T12:39:54;2.38;;;0.88;;
41923;SDS011;27613;48.116;11.656;2022-12-24T12:42:30;2.88;;;1.00;;
41923;SDS011;27613;48.116;11.656;2022-12-24T12:53:10;2.58;;;1.10;;
41923;SDS011;27613;48.116;11.656;2022-12-24T12:58:33;2.55;;;1.05;;
41923;SDS011;27613;48.116;11.656;2022-12-24T13:01:44;4.15;;;1.20;;
41923;SDS011;27613;48.116;11.656;2022-12-24T13:04:53;2.85;;;1.13;;
41923;SDS011;27613;48.116;11.656;2022-12-24T13:10:20;2.58;;;1.50;;
41923;SDS011;27613;48.116;11.656;2022-12-24T13:20:48;3.83;;;1.30;;
41923;SDS011;27613;48.116;11.656;2022-12-24T13:23:22;2.75;;;1.30;;
41923;SDS011;27613;48.116;11.656;2022-12-24T13:25:50;2.67;;;1.13;;
41923;SDS011;27613;48.116;11.656;2022-12-24T13:30:46;2.60;;;1.35;;
41923;SDS011;27613;48.116;11.656;2022-12-24T13:36:24;2.30;;;1.00;;
41923;SDS011;27613;48.116;11.656;2022-12-24T13:39:59;1.88;;;1.10;;
41923;SDS011;27613;48.116;11.656;2022-12-24T13:47:53;3.85;;;1.40;;
41923;SDS011;27613;48.116;11.656;2022-12-24T13:50:27;4.78;;;1.42;;
41923;SDS011;27613;48.116;11.656;2022-12-24T13:53:27;4.03;;;1.45;;
41923;SDS011;27613;48.116;11.656;2022-12-24T14:01:04;4.28;;;1.25;;
41923;SDS011;27613;48.116;11.656;2022-12-24T14:03:35;3.63;;;1.33;;
41923;SDS011;27613;48.116;11.656;2022-12-24T14:06:21;1.95;;;1.08;;
41923;SDS011;27613;48.116;11.656;2022-12-24T14:08:49;2.40;;;1.25;;
41923;SDS011;27613;48.116;11.656;2022-12-24T14:11:18;3.67;;;1.13;;
41923;SDS011;27613;48.116;11.656;2022-12-24T14:16:24;2.88;;;1.10;;
41923;SDS011;27613;48.116;11.656;2022-12-24T14:21:37;1.50;;;0.95;;
41923;SDS011;27613;48.116;11.656;2022-12-24T14:24:13;3.88;;;1.52;;
41923;SDS011;27613;48.116;11.656;2022-12-24T14:26:45;2.33;;;0.90;;
41923;SDS011;27613;48.116;11.656;2022-12-24T14:29:20;3.00;;;1.33;;
41923;SDS011;27613;48.116;11.656;2022-12-24T14:31:55;2.53;;;1.25;;
41923;SDS011;27613;48.116;11.656;2022-12-24T14:34:22;4.20;;;1.10;;
41923;SDS011;27613;48.116;11.656;2022-12-24T14:36:49;3.15;;;1.67;;
41923;SDS011;27613;48.116;11.656;2022-12-24T14:39:29;2.42;;;1.38;;
41923;SDS011;27613;48.116;11.656;2022-12-24T14:42:06;2.92;;;1.20;;
41923;SDS011;27613;48.116;11.656;2022-12-24T14:45:06;2.15;;;1.20;;
41923;SDS011;27613;48.116;11.656;2022-12-24T14:47:55;2.72;;;1.27;;
41923;SDS011;27613;48.116;11.656;2022-12-24T14:50:38;2.90;;;1.30;;
41923;SDS011;27613;48.116;11.656;2022-12-24T14:56:13;3.45;;;1.10;;
41923;SDS011;27613;48.116;11.656;2022-12-24T14:58:41;1.95;;;1.00;;
41923;SDS011;27613;48.116;11.656;2022-12-24T15:04:16;3.55;;;1.50;;
41923;SDS011;27613;48.116;11.656;2022-12-24T15:06:43;2.63;;;1.10;;
41923;SDS011;27613;48.116;11.656;2022-12-24T15:09:21;1.93;;;1.17;;
41923;SDS011;27613;48.116;11.656;2022-12-24T15:11:49;2.65;;;1.50;;
41923;SDS011;27613;48.116;11.656;2022-12-24T15:14:17;3.55;;;1.23;;
41923;SDS011;27613;48.116;11.656;2022-12-24T15:16:51;2.28;;;1.13;;
41923;SDS011;27613;48.116;11.656;2022-12-24T15:19:24;2.85;;;1.60;;
41923;SDS011;27613;48.116;11.656;2022-12-24T15:21:52;1.73;;;1.02;;
41923;SDS011;27613;48.116;11.656;2022-12-24T15:24:26;2.00;;;1.27;;
41923;SDS011;27613;48.116;11.656;2022-12-24T15:26:59;1.80;;;1.05;;
41923;SDS011;27613;48.116;11.656;2022-12-24T15:29:30;2.45;;;1.10;;
41923;SDS011;27613;48.116;11.656;2022-12-24T15:31:58;2.72;;;1.40;;
41923;SDS011;27613;48.116;11.656;2022-12-24T15:34:29;4.03;;;1.52;;
41923;SDS011;27613;48.116;11.656;2022-12-24T15:37:01;4.78;;;2.17;;
41923;SDS011;27613;48.116;11.656;2022-12-24T15:39:30;3.45;;;1.58;;
41923;SDS011;27613;48.116;11.656;2022-12-24T15:41:56;2.95;;;1.30;;
41923;SDS011;27613;48.116;11.656;2022-12-24T15:44:37;2.80;;;1.60;;
41923;SDS011;27613;48.116;11.656;2022-12-24T15:47:07;3.10;;;1.85;;
41923;SDS011;27613;48.116;11.656;2022-12-24T15:49:47;2.97;;;1.67;;
41923;SDS011;27613;48.116;11.656;2022-12-24T15:52:16;5.05;;;3.15;;
41923;SDS011;27613;48.116;11.656;2022-12-24T15:54:45;4.95;;;2.72;;
41923;SDS011;27613;48.116;11.656;2022-12-24T15:57:13;4.05;;;2.20;;
41923;SDS011;27613;48.116;11.656;2022-12-24T15:59:54;4.07;;;2.15;;
41923;SDS011;27613;48.116;11.656;2022-12-24T16:08:02;3.65;;;2.00;;
41923;SDS011;27613;48.116;11.656;2022-12-24T16:10:44;5.20;;;2.00;;
41923;SDS011;27613;48.116;11.656;2022-12-24T16:15:52;5.05;;;1.92;;
41923;SDS011;27613;48.116;11.656;2022-12-24T16:18:21;4.63;;;1.80;;
41923;SDS011;27613;48.116;11.656;2022-12-24T16:20:50;3.17;;;1.48;;
41923;SDS011;27613;48.116;11.656;2022-12-24T16:23:18;2.38;;;1.52;;
41923;SDS011;27613;48.116;11.656;2022-12-24T16:25:48;6.28;;;2.13;;
41923;SDS011;27613;48.116;11.656;2022-12-24T16:28:14;2.55;;;1.65;;
41923;SDS011;27613;48.116;11.656;2022-12-24T16:30:43;6.63;;;3.50;;
41923;SDS011;27613;48.116;11.656;2022-12-24T16:33:11;5.85;;;2.63;;
41923;SDS011;27613;48.116;11.656;2022-12-24T16:35:39;4.03;;;2.70;;
41923;SDS011;27613;48.116;11.656;2022-12-24T16:38:04;5.00;;;2.90;;
41923;SDS011;27613;48.116;11.656;2022-12-24T16:40:30;4.85;;;3.10;;
41923;SDS011;27613;48.116;11.656;2022-12-24T16:42:55;5.03;;;3.22;;
41923;SDS011;27613;48.116;11.656;2022-12-24T16:48:10;6.00;;;3.95;;